createdAt,value
2019-04-28T00:00:51.063Z,3.17
2019-04-28T00:03:20.798Z,2.90
2019-04-28T00:05:48.949Z,2.67
2019-04-28T00:08:16.867Z,3.20
2019-04-28T00:10:44.931Z,2.80
2019-04-28T00:13:12.887Z,3.10
2019-04-28T00:15:41.691Z,3.07
2019-04-28T00:18:11.857Z,2.57
2019-04-28T00:21:05.048Z,3.00
2019-04-28T00:23:54.893Z,2.40
2019-04-28T00:26:36.194Z,2.73
2019-04-28T00:29:04.276Z,2.93
2019-04-28T00:31:32.506Z,2.70
2019-04-28T00:34:01.308Z,2.73
2019-04-28T00:36:31.271Z,3.10
2019-04-28T00:39:01.358Z,2.70
2019-04-28T00:41:30.905Z,3.23
2019-04-28T00:43:59.012Z,2.93
2019-04-28T00:46:31.991Z,3.10
2019-04-28T00:49:01.987Z,3.23
2019-04-28T00:51:31.313Z,3.30
2019-04-28T00:54:00.821Z,3.10
2019-04-28T00:56:29.210Z,3.30
2019-04-28T00:58:57.244Z,2.63
2019-04-28T01:01:35.062Z,2.80
2019-04-28T01:04:03.368Z,3.00
2019-04-28T01:06:32.128Z,3.00
2019-04-28T01:09:01.384Z,3.00
2019-04-28T01:11:31.649Z,3.10
2019-04-28T01:14:01.623Z,3.27
2019-04-28T01:16:36.139Z,3.37
2019-04-28T01:19:26.385Z,2.70
2019-04-28T01:22:15.107Z,3.20
2019-04-28T01:24:43.078Z,2.90
2019-04-28T01:27:50.429Z,2.90
2019-04-28T01:30:39.979Z,3.13
2019-04-28T01:33:36.625Z,3.13
2019-04-28T01:36:04.795Z,3.00
2019-04-28T01:38:32.716Z,3.23
2019-04-28T01:41:01.555Z,2.77
2019-04-28T01:43:31.263Z,3.20
2019-04-28T01:46:00.187Z,2.80
2019-04-28T01:48:29.606Z,3.30
2019-04-28T01:50:59.742Z,2.83
2019-04-28T01:53:27.937Z,3.03
2019-04-28T01:55:55.903Z,2.97
2019-04-28T01:58:23.980Z,3.30
2019-04-28T02:00:51.926Z,3.00
2019-04-28T02:03:20.591Z,2.80
2019-04-28T02:05:50.155Z,2.90
2019-04-28T02:08:20.119Z,3.13
2019-04-28T02:10:50.155Z,3.20
2019-04-28T02:13:19.837Z,3.43
2019-04-28T02:15:49.912Z,2.90
2019-04-28T02:18:17.694Z,3.07
2019-04-28T02:20:51.047Z,3.00
2019-04-28T02:23:23.906Z,2.73
2019-04-28T02:25:51.772Z,2.87
2019-04-28T02:28:19.868Z,3.10
2019-04-28T02:30:50.250Z,3.20
2019-04-28T02:33:17.874Z,2.50
2019-04-28T02:35:45.782Z,3.03
2019-04-28T02:38:13.663Z,2.97
2019-04-28T02:40:41.735Z,2.67
2019-04-28T02:43:11.405Z,2.90
2019-04-28T02:45:41.277Z,2.97
2019-04-28T02:48:14.859Z,3.00
2019-04-28T02:50:53.671Z,2.63
2019-04-28T02:53:26.996Z,2.87
2019-04-28T02:55:55.204Z,3.30
2019-04-28T02:58:23.149Z,3.07
2019-04-28T03:01:02.661Z,3.90
2019-04-28T03:03:21.302Z,3.20
2019-04-28T03:05:51.190Z,2.80
2019-04-28T03:08:21.326Z,3.17
2019-04-28T03:10:53.592Z,3.43
2019-04-28T03:13:21.758Z,3.10
2019-04-28T03:15:51.581Z,3.73
2019-04-28T03:18:21.400Z,3.67
2019-04-28T03:20:51.505Z,3.63
2019-04-28T03:23:20.732Z,4.00
2019-04-28T03:26:23.193Z,3.97
2019-04-28T03:29:10.855Z,3.63
2019-04-28T03:32:15.586Z,3.43
2019-04-28T03:34:23.615Z,3.50
2019-04-28T03:36:52.044Z,3.73
2019-04-28T03:39:20.455Z,3.10
2019-04-28T03:41:50.230Z,3.43
2019-04-28T03:44:20.619Z,2.60
2019-04-28T03:46:52.308Z,3.20
2019-04-28T03:49:33.567Z,3.83
2019-04-28T03:52:02.804Z,3.53
2019-04-28T03:54:30.825Z,3.17
2019-04-28T03:57:01.349Z,3.40
2019-04-28T03:59:31.097Z,3.63
2019-04-28T04:02:02.318Z,3.47
2019-04-28T04:04:28.384Z,2.97
2019-04-28T04:06:56.541Z,3.00
2019-04-28T04:09:27.341Z,3.37
2019-04-28T04:12:13.097Z,2.70
2019-04-28T04:14:51.505Z,3.07
2019-04-28T04:17:41.313Z,3.47
2019-04-28T04:20:11.011Z,3.03
2019-04-28T04:22:41.051Z,3.20
2019-04-28T04:25:10.189Z,3.17
2019-04-28T04:27:40.624Z,3.27
2019-04-28T04:30:10.626Z,3.07
2019-04-28T04:32:40.889Z,3.33
2019-04-28T04:35:10.211Z,3.60
2019-04-28T04:37:40.378Z,3.60
2019-04-28T04:40:07.774Z,3.67
2019-04-28T04:42:35.618Z,4.50
2019-04-28T04:45:03.899Z,4.67
2019-04-28T04:47:32.880Z,3.63
2019-04-28T04:50:01.034Z,4.87
2019-04-28T04:52:30.422Z,4.07
2019-04-28T04:55:01.038Z,6.97
2019-04-28T04:57:32.401Z,5.70
2019-04-28T05:00:00.049Z,4.43
2019-04-28T05:02:51.302Z,3.67
2019-04-28T05:05:22.433Z,4.40
2019-04-28T05:07:50.788Z,3.93
2019-04-28T05:10:20.358Z,3.90
2019-04-28T05:12:49.942Z,3.70
2019-04-28T05:15:20.227Z,4.37
2019-04-28T05:17:50.010Z,3.97
2019-04-28T05:20:20.044Z,3.80
2019-04-28T05:23:04.179Z,3.50
2019-04-28T05:25:41.054Z,2.93
2019-04-28T05:28:10.419Z,3.80
2019-04-28T05:30:39.664Z,3.77
2019-04-28T05:33:10.504Z,4.03
2019-04-28T05:35:39.725Z,3.70
2019-04-28T05:38:09.898Z,4.13
2019-04-28T05:40:39.746Z,4.43
2019-04-28T05:43:07.684Z,4.63
2019-04-28T05:45:35.698Z,3.97
2019-04-28T05:48:03.877Z,3.90
2019-04-28T05:50:57.301Z,4.00
2019-04-28T05:53:31.582Z,4.40
2019-04-28T05:56:10.339Z,4.10
2019-04-28T05:59:06.662Z,4.33
2019-04-28T06:01:52.609Z,5.17
2019-04-28T06:04:23.131Z,6.50
2019-04-28T06:06:53.380Z,7.37
2019-04-28T06:09:40.336Z,9.20
2019-04-28T06:12:10.748Z,10.30
2019-04-28T06:14:40.256Z,10.77
2019-04-28T06:17:10.703Z,10.33
2019-04-28T06:19:40.281Z,9.27
2019-04-28T06:22:08.388Z,8.80
2019-04-28T06:24:36.439Z,7.30
2019-04-28T06:27:04.525Z,6.17
2019-04-28T06:29:32.605Z,6.03
2019-04-28T06:32:00.620Z,5.40
2019-04-28T06:34:28.651Z,5.87
2019-04-28T06:36:56.798Z,5.77
2019-04-28T06:39:25.083Z,6.57
2019-04-28T06:41:53.211Z,5.47
2019-04-28T06:44:21.126Z,4.97
2019-04-28T06:46:49.111Z,4.50
2019-04-28T06:49:17.013Z,4.27
2019-04-28T06:51:45.110Z,3.73
2019-04-28T06:54:13.027Z,4.13
2019-04-28T06:56:41.266Z,3.83
2019-04-28T06:59:09.050Z,3.63
2019-04-28T07:01:37.151Z,3.80
2019-04-28T07:04:05.211Z,3.87
2019-04-28T07:06:35.084Z,3.83
2019-04-28T07:09:04.858Z,4.17
2019-04-28T07:11:32.816Z,4.23
2019-04-28T07:14:13.478Z,4.47
2019-04-28T07:16:41.674Z,4.20
2019-04-28T07:19:09.695Z,4.40
2019-04-28T07:21:57.256Z,4.40
2019-04-28T07:24:25.251Z,4.37
2019-04-28T07:26:53.132Z,4.80
2019-04-28T07:29:21.237Z,4.23
2019-04-28T07:31:49.422Z,4.47
2019-04-28T07:34:31.674Z,4.97
2019-04-28T07:36:59.716Z,5.00
2019-04-28T07:39:27.895Z,4.27
2019-04-28T07:41:55.939Z,5.00
2019-04-28T07:44:24.362Z,6.10
2019-04-28T07:46:52.188Z,5.23
2019-04-28T07:49:20.259Z,5.17
2019-04-28T07:52:08.071Z,5.40
2019-04-28T07:54:36.101Z,5.03
2019-04-28T07:57:04.251Z,4.87
2019-04-28T07:59:32.557Z,4.93
2019-04-28T08:02:00.597Z,4.87
2019-04-28T08:04:28.659Z,4.47
2019-04-28T08:06:56.547Z,5.43
2019-04-28T08:09:24.485Z,5.47
2019-04-28T08:11:52.636Z,4.83
2019-04-28T08:14:46.139Z,4.50
2019-04-28T08:17:14.031Z,4.57
2019-04-28T08:19:42.068Z,4.00
2019-04-28T08:22:10.045Z,4.10
2019-04-28T08:24:38.116Z,4.43
2019-04-28T08:27:06.178Z,4.93
2019-04-28T08:29:34.273Z,4.70
2019-04-28T08:32:32.093Z,4.53
2019-04-28T08:35:14.442Z,4.90
2019-04-28T08:37:53.652Z,4.53
2019-04-28T08:40:38.828Z,4.07
2019-04-28T08:43:21.297Z,4.47
2019-04-28T08:46:03.926Z,4.33
2019-04-28T08:48:46.583Z,32.80
2019-04-28T08:51:26.303Z,120.57
2019-04-28T08:53:54.389Z,56.90
2019-04-28T08:56:22.465Z,29.47
2019-04-28T08:59:14.047Z,14.57
2019-04-28T09:01:37.648Z,7.20
2019-04-28T09:04:15.054Z,8.77
2019-04-28T09:06:35.304Z,5.77
2019-04-28T09:09:04.859Z,4.83
2019-04-28T09:11:32.834Z,5.13
2019-04-28T09:14:24.229Z,5.17
2019-04-28T09:16:52.017Z,5.23
2019-04-28T09:19:19.861Z,4.77
2019-04-28T09:21:48.221Z,4.40
2019-04-28T09:24:16.369Z,4.70
2019-04-28T09:26:44.369Z,4.87
2019-04-28T09:29:12.393Z,5.27
2019-04-28T09:31:40.551Z,12.97
2019-04-28T09:34:08.485Z,9.97
2019-04-28T09:36:36.632Z,9.20
2019-04-28T09:39:06.398Z,14.40
2019-04-28T09:41:36.330Z,50.10
2019-04-28T09:44:11.518Z,9.30
2019-04-28T09:46:40.537Z,6.47
2019-04-28T09:49:08.709Z,6.60
2019-04-28T09:51:36.897Z,6.60
2019-04-28T09:54:05.046Z,7.77
2019-04-28T09:56:33.287Z,6.40
2019-04-28T09:59:01.245Z,3.23
2019-04-28T10:01:29.249Z,3.00
2019-04-28T10:03:57.529Z,3.40
2019-04-28T10:06:25.431Z,3.23
2019-04-28T10:08:53.442Z,2.87
2019-04-28T10:11:30.389Z,3.13
2019-04-28T10:14:17.381Z,2.80
2019-04-28T10:16:44.617Z,2.43
2019-04-28T10:19:12.573Z,2.20
2019-04-28T10:21:40.586Z,2.60
2019-04-28T10:24:08.677Z,2.80
2019-04-28T10:26:36.809Z,2.30
2019-04-28T10:29:04.874Z,2.63
2019-04-28T10:31:32.936Z,2.70
2019-04-28T10:34:02.696Z,2.27
2019-04-28T10:36:33.058Z,2.60
2019-04-28T10:39:18.795Z,4.13
2019-04-28T10:42:00.567Z,13.50
2019-04-28T10:44:29.985Z,25.60
2019-04-28T10:46:58.210Z,39.80
2019-04-28T10:49:26.717Z,36.13
2019-04-28T10:51:59.498Z,39.40
2019-04-28T10:54:24.604Z,32.37
2019-04-28T10:56:52.653Z,20.83
2019-04-28T10:59:20.806Z,16.30
2019-04-28T11:01:57.403Z,14.13
2019-04-28T11:04:51.709Z,10.63
2019-04-28T11:07:19.854Z,8.30
2019-04-28T11:09:57.276Z,6.37
2019-04-28T11:12:26.418Z,4.90
2019-04-28T11:15:20.996Z,4.13
2019-04-28T11:17:49.065Z,3.93
2019-04-28T11:20:17.069Z,3.40
2019-04-28T11:22:45.094Z,2.97
2019-04-28T11:25:14.944Z,2.67
2019-04-28T11:27:42.843Z,3.40
2019-04-28T11:30:11.222Z,3.33
2019-04-28T11:32:41.865Z,3.20
2019-04-28T11:35:21.792Z,2.87
2019-04-28T11:37:47.409Z,2.90
2019-04-28T11:40:16.710Z,3.80
2019-04-28T11:42:44.857Z,3.87
2019-04-28T11:45:14.427Z,3.70
2019-04-28T11:47:42.711Z,3.30
2019-04-28T11:50:11.152Z,3.40
2019-04-28T11:52:39.207Z,3.37
2019-04-28T11:55:07.317Z,2.57
2019-04-28T11:57:35.470Z,1.90
2019-04-28T12:00:37.058Z,1.67
2019-04-28T12:03:18.650Z,1.00
2019-04-28T12:06:00.685Z,1.60
2019-04-28T12:08:42.986Z,1.43
2019-04-28T12:11:36.235Z,1.13
2019-04-28T12:14:43.192Z,1.70
2019-04-28T12:17:39.586Z,2.30
2019-04-28T12:20:26.944Z,1.90
2019-04-28T12:23:09.767Z,2.00
2019-04-28T12:25:51.804Z,1.60
2019-04-28T12:28:34.296Z,1.60
2019-04-28T12:31:17.768Z,2.40
2019-04-28T12:34:00.407Z,1.97
2019-04-28T12:36:43.088Z,1.93
2019-04-28T12:39:26.751Z,1.90
2019-04-28T12:42:12.115Z,1.80
2019-04-28T12:44:56.042Z,2.00
2019-04-28T12:47:38.588Z,1.47
2019-04-28T12:50:34.220Z,2.10
2019-04-28T12:53:17.137Z,3.40
2019-04-28T12:56:00.614Z,1.97
2019-04-28T12:58:43.916Z,1.73
2019-04-28T13:01:39.278Z,1.50
2019-04-28T13:04:26.261Z,1.93
2019-04-28T13:07:10.898Z,1.37
2019-04-28T13:09:53.061Z,1.50
2019-04-28T13:12:37.658Z,1.53
2019-04-28T13:15:40.125Z,2.70
2019-04-28T13:18:22.945Z,2.83
2019-04-28T13:21:08.978Z,2.00
2019-04-28T13:23:51.736Z,2.00
2019-04-28T13:26:52.165Z,3.77
2019-04-28T13:29:48.773Z,2.57
2019-04-28T13:32:47.867Z,2.20
2019-04-28T13:35:16.964Z,2.00
2019-04-28T13:37:45.043Z,1.77
2019-04-28T13:40:19.081Z,1.60
2019-04-28T13:42:47.085Z,2.00
2019-04-28T13:45:19.666Z,1.93
2019-04-28T13:47:47.678Z,2.10
2019-04-28T13:50:37.036Z,1.83
2019-04-28T13:53:05.733Z,2.30
2019-04-28T13:56:05.161Z,2.10
2019-04-28T13:58:58.318Z,2.20
2019-04-28T14:02:06.057Z,2.10
2019-04-28T14:04:51.673Z,2.83
2019-04-28T14:07:19.863Z,2.87
2019-04-28T14:09:47.746Z,2.73
2019-04-28T14:12:15.933Z,2.50
2019-04-28T14:15:19.585Z,3.77
2019-04-28T14:17:46.436Z,3.60
2019-04-28T14:20:16.038Z,3.00
2019-04-28T14:23:00.223Z,3.07
2019-04-28T14:25:42.400Z,3.10
2019-04-28T14:28:26.296Z,4.17
2019-04-28T14:31:09.035Z,3.00
2019-04-28T14:33:51.630Z,2.20
2019-04-28T14:36:41.962Z,1.97
2019-04-28T14:39:21.136Z,1.73
2019-04-28T14:42:03.548Z,2.20
2019-04-28T14:44:47.009Z,2.10
2019-04-28T14:47:29.629Z,1.93
2019-04-28T14:50:14.370Z,1.90
2019-04-28T14:52:56.341Z,2.10
2019-04-28T14:55:41.225Z,1.87
2019-04-28T14:58:27.014Z,2.10
2019-04-28T15:01:26.573Z,2.03
2019-04-28T15:04:10.573Z,2.40
2019-04-28T15:07:00.953Z,2.30
2019-04-28T15:09:49.228Z,2.30
2019-04-28T15:12:31.569Z,2.83
2019-04-28T15:15:59.861Z,5.50
2019-04-28T15:18:26.663Z,5.17
2019-04-28T15:20:58.362Z,3.37
2019-04-28T15:23:37.936Z,2.70
2019-04-28T15:26:23.326Z,2.53
2019-04-28T15:28:54.980Z,1.90
2019-04-28T15:31:41.947Z,2.10
2019-04-28T15:34:35.201Z,1.83
2019-04-28T15:37:10.006Z,2.00
2019-04-28T15:39:37.047Z,1.60
2019-04-28T15:42:09.397Z,1.93
2019-04-28T15:44:54.896Z,2.03
2019-04-28T15:47:42.238Z,2.10
2019-04-28T15:50:27.638Z,2.60
2019-04-28T15:53:13.082Z,2.37
2019-04-28T15:56:30.741Z,2.30
2019-04-28T15:59:56.978Z,1.80
2019-04-28T16:03:39.272Z,1.83
2019-04-28T16:06:36.915Z,2.00
2019-04-28T16:09:15.406Z,2.20
2019-04-28T16:11:43.541Z,2.63
2019-04-28T16:14:53.490Z,2.83
2019-04-28T16:18:01.543Z,2.70
2019-04-28T16:21:13.467Z,2.20
2019-04-28T16:24:13.049Z,1.70
2019-04-28T16:27:17.449Z,1.70
2019-04-28T16:30:02.727Z,1.40
2019-04-28T16:32:34.509Z,1.60
2019-04-28T16:35:02.624Z,1.90
2019-04-28T16:37:44.689Z,1.80
2019-04-28T16:40:30.157Z,1.93
2019-04-28T16:43:11.987Z,1.87
2019-04-28T16:45:54.974Z,1.80
2019-04-28T16:48:22.992Z,1.43
2019-04-28T16:50:50.950Z,1.60
2019-04-28T16:53:18.895Z,1.60
2019-04-28T16:56:21.147Z,1.53
2019-04-28T16:59:23.538Z,1.40
2019-04-28T17:02:00.997Z,2.10
2019-04-28T17:04:28.923Z,2.00
2019-04-28T17:06:56.835Z,2.03
2019-04-28T17:09:24.842Z,1.60
2019-04-28T17:11:52.807Z,2.30
2019-04-28T17:15:08.546Z,2.40
2019-04-28T17:17:34.433Z,3.30
2019-04-28T17:20:02.542Z,2.83
2019-04-28T17:22:30.554Z,2.13
2019-04-28T17:24:58.817Z,2.17
2019-04-28T17:27:35.559Z,2.23
2019-04-28T17:30:45.221Z,1.90
2019-04-28T17:33:39.765Z,1.90
2019-04-28T17:36:16.591Z,2.30
2019-04-28T17:39:02.005Z,2.00
2019-04-28T17:42:15.225Z,2.17
2019-04-28T17:45:35.155Z,1.93
2019-04-28T17:48:39.904Z,2.00
2019-04-28T17:51:48.436Z,2.33
2019-04-28T17:54:51.428Z,3.93
2019-04-28T17:57:52.266Z,9.33
2019-04-28T18:01:07.150Z,9.67
2019-04-28T18:04:21.847Z,9.00
2019-04-28T18:07:44.359Z,7.70
2019-04-28T18:10:54.540Z,7.80
2019-04-28T18:14:10.610Z,6.80
2019-04-28T18:17:09.002Z,6.53
2019-04-28T18:19:52.338Z,7.17
2019-04-28T18:22:31.097Z,16.40
2019-04-28T18:24:59.074Z,28.33
2019-04-28T18:27:27.317Z,23.83
2019-04-28T18:29:56.044Z,16.73
2019-04-28T18:32:58.568Z,11.30
2019-04-28T18:35:32.992Z,11.77
2019-04-28T18:38:34.126Z,8.43
2019-04-28T18:41:10.369Z,6.20
2019-04-28T18:43:43.770Z,5.50
2019-04-28T18:46:11.927Z,5.33
2019-04-28T18:48:40.017Z,4.43
2019-04-28T18:51:07.890Z,4.07
2019-04-28T18:53:35.970Z,4.13
2019-04-28T18:56:05.748Z,3.87
2019-04-28T18:58:34.658Z,3.10
2019-04-28T19:01:22.068Z,3.60
2019-04-28T19:03:50.085Z,4.80
2019-04-28T19:06:18.351Z,5.00
2019-04-28T19:08:54.282Z,5.53
2019-04-28T19:11:33.987Z,5.80
2019-04-28T19:14:49.213Z,4.90
2019-04-28T19:17:36.225Z,3.97
2019-04-28T19:20:06.332Z,5.40
2019-04-28T19:22:44.848Z,4.80
2019-04-28T19:25:39.994Z,4.63
2019-04-28T19:28:27.110Z,4.47
2019-04-28T19:31:11.375Z,5.27
2019-04-28T19:33:53.461Z,2.97
2019-04-28T19:36:22.765Z,2.70
2019-04-28T19:39:02.618Z,2.57
2019-04-28T19:41:20.741Z,2.70
2019-04-28T19:44:17.313Z,3.90
2019-04-28T19:47:07.257Z,3.60
2019-04-28T19:49:50.401Z,3.90
2019-04-28T19:52:19.148Z,3.60
2019-04-28T19:55:07.380Z,2.77
2019-04-28T19:57:43.692Z,3.33
2019-04-28T20:00:22.454Z,3.93
2019-04-28T20:02:54.950Z,3.60
2019-04-28T20:05:23.533Z,2.87
2019-04-28T20:07:51.741Z,2.40
2019-04-28T20:10:38.693Z,2.30
2019-04-28T20:13:23.233Z,2.43
2019-04-28T20:16:13.696Z,2.23
2019-04-28T20:18:41.601Z,3.30
2019-04-28T20:21:30.611Z,3.13
2019-04-28T20:23:58.487Z,2.80
2019-04-28T20:26:47.324Z,3.00
2019-04-28T20:29:15.466Z,4.40
2019-04-28T20:35:11.856Z,3.73
2019-04-28T20:38:15.006Z,3.50
2019-04-28T20:41:13.897Z,2.80
2019-04-28T20:43:56.799Z,2.10
2019-04-28T20:46:44.823Z,2.60
2019-04-28T20:49:27.062Z,22.07
2019-04-28T20:52:09.324Z,11.20
2019-04-28T20:54:37.225Z,3.30
2019-04-28T20:57:05.254Z,3.60
2019-04-28T20:59:33.110Z,4.30
2019-04-28T21:02:01.057Z,4.30
2019-04-28T21:04:28.990Z,2.83
2019-04-28T21:06:57.390Z,2.17
2019-04-28T21:09:25.424Z,1.90
2019-04-28T21:11:53.421Z,3.13
2019-04-28T21:14:59.800Z,2.80
2019-04-28T21:17:26.536Z,2.80
2019-04-28T21:20:07.800Z,2.53
2019-04-28T21:22:35.517Z,2.50
2019-04-28T21:25:04.047Z,1.73
2019-04-28T21:27:46.587Z,2.10
2019-04-28T21:30:31.083Z,1.67
2019-04-28T21:33:13.540Z,1.80
2019-04-28T21:35:50.407Z,1.40
2019-04-28T21:38:18.425Z,1.47
2019-04-28T21:40:46.467Z,1.73
2019-04-28T21:43:29.540Z,1.43
2019-04-28T21:46:13.516Z,2.00
2019-04-28T21:48:43.687Z,1.70
2019-04-28T21:51:12.393Z,1.53
2019-04-28T21:53:40.414Z,1.70
2019-04-28T21:56:08.469Z,1.67
2019-04-28T21:58:36.480Z,1.40
2019-04-28T22:01:05.169Z,1.33
2019-04-28T22:03:33.185Z,1.70
2019-04-28T22:06:20.937Z,1.40
2019-04-28T22:08:48.874Z,1.27
2019-04-28T22:11:17.073Z,1.37
2019-04-28T22:13:45.061Z,1.60
2019-04-28T22:16:13.112Z,1.57
2019-04-28T22:18:41.094Z,1.80
2019-04-28T22:21:09.131Z,1.47
2019-04-28T22:23:59.806Z,1.67
2019-04-28T22:26:46.414Z,1.40
2019-04-28T22:29:14.806Z,1.53
2019-04-28T22:31:43.367Z,1.40
2019-04-28T22:34:13.197Z,1.50
2019-04-28T22:36:41.885Z,1.50
2019-04-28T22:39:10.688Z,1.80
2019-04-28T22:41:38.680Z,1.73
2019-04-28T22:44:06.892Z,1.60
2019-04-28T22:46:35.116Z,1.50
2019-04-28T22:49:04.670Z,1.50
2019-04-28T22:51:32.948Z,1.60
2019-04-28T22:54:04.503Z,1.53
2019-04-28T22:56:41.251Z,1.40
2019-04-28T22:59:26.075Z,1.40
2019-04-28T23:01:59.535Z,1.50
2019-04-28T23:04:50.080Z,1.60
2019-04-28T23:07:18.695Z,1.60
2019-04-28T23:09:47.126Z,1.67
2019-04-28T23:12:15.220Z,1.97
2019-04-28T23:14:43.280Z,1.67
2019-04-28T23:17:14.494Z,1.87
2019-04-28T23:19:43.376Z,1.60
2019-04-28T23:22:46.707Z,1.60
2019-04-28T23:25:10.253Z,1.70
2019-04-28T23:27:38.656Z,1.90
2019-04-28T23:30:08.103Z,1.70
2019-04-28T23:32:36.101Z,1.90
2019-04-28T23:35:04.904Z,1.67
2019-04-28T23:37:33.376Z,1.63
2019-04-28T23:40:01.732Z,2.10
2019-04-28T23:42:37.759Z,2.20
2019-04-28T23:45:06.172Z,2.20
2019-04-28T23:47:34.586Z,2.10
2019-04-28T23:50:03.282Z,2.10
2019-04-28T23:52:39.784Z,2.50
2019-04-28T23:55:10.297Z,2.37
2019-04-28T23:57:38.255Z,2.40
